sensor_id;sensor_type;location;lat;lon;timestamp;P1;durP1;ratioP1;P2;durP2;ratioP2
43813;SDS011;29669;55.706;37.656;2023-04-24T00:00:45;41.13;;;10.38;;
43813;SDS011;29669;55.706;37.656;2023-04-24T00:03:12;32.53;;;10.98;;
43813;SDS011;29669;55.706;37.656;2023-04-24T00:05:40;27.60;;;10.27;;
43813;SDS011;29669;55.706;37.656;2023-04-24T00:08:08;34.50;;;10.45;;
43813;SDS011;29669;55.706;37.656;2023-04-24T00:10:36;30.60;;;10.07;;
43813;SDS011;29669;55.706;37.656;2023-04-24T00:13:03;28.70;;;10.20;;
43813;SDS011;29669;55.706;37.656;2023-04-24T00:15:31;23.67;;;10.30;;
43813;SDS011;29669;55.706;37.656;2023-04-24T00:17:59;29.13;;;10.23;;
43813;SDS011;29669;55.706;37.656;2023-04-24T00:20:28;36.05;;;11.35;;
43813;SDS011;29669;55.706;37.656;2023-04-24T00:22:56;36.25;;;10.95;;
43813;SDS011;29669;55.706;37.656;2023-04-24T00:25:24;25.83;;;10.73;;
43813;SDS011;29669;55.706;37.656;2023-04-24T00:27:52;37.13;;;11.57;;
43813;SDS011;29669;55.706;37.656;2023-04-24T00:30:20;34.60;;;12.25;;
43813;SDS011;29669;55.706;37.656;2023-04-24T00:32:48;25.83;;;9.45;;
43813;SDS011;29669;55.706;37.656;2023-04-24T00:35:17;26.30;;;9.75;;
43813;SDS011;29669;55.706;37.656;2023-04-24T00:37:47;21.25;;;10.50;;
43813;SDS011;29669;55.706;37.656;2023-04-24T00:40:14;27.45;;;10.15;;
43813;SDS011;29669;55.706;37.656;2023-04-24T00:42:43;40.03;;;11.65;;
43813;SDS011;29669;55.706;37.656;2023-04-24T00:45:11;30.80;;;10.13;;
43813;SDS011;29669;55.706;37.656;2023-04-24T00:47:40;33.20;;;10.52;;
43813;SDS011;29669;55.706;37.656;2023-04-24T00:50:09;32.67;;;11.98;;
43813;SDS011;29669;55.706;37.656;2023-04-24T00:52:38;31.40;;;10.18;;
43813;SDS011;29669;55.706;37.656;2023-04-24T00:55:08;37.22;;;11.30;;
43813;SDS011;29669;55.706;37.656;2023-04-24T00:57:37;36.47;;;12.38;;
43813;SDS011;29669;55.706;37.656;2023-04-24T01:00:05;41.00;;;13.13;;
43813;SDS011;29669;55.706;37.656;2023-04-24T01:02:39;30.48;;;12.40;;
43813;SDS011;29669;55.706;37.656;2023-04-24T01:05:11;31.80;;;11.00;;
43813;SDS011;29669;55.706;37.656;2023-04-24T01:07:41;28.65;;;10.75;;
43813;SDS011;29669;55.706;37.656;2023-04-24T01:10:15;34.97;;;11.30;;
43813;SDS011;29669;55.706;37.656;2023-04-24T01:12:47;35.97;;;10.65;;
43813;SDS011;29669;55.706;37.656;2023-04-24T01:15:14;28.10;;;11.07;;
43813;SDS011;29669;55.706;37.656;2023-04-24T01:17:42;35.20;;;12.05;;
43813;SDS011;29669;55.706;37.656;2023-04-24T01:20:10;22.25;;;10.65;;
43813;SDS011;29669;55.706;37.656;2023-04-24T01:22:40;27.73;;;10.02;;
43813;SDS011;29669;55.706;37.656;2023-04-24T01:25:09;24.73;;;10.85;;
43813;SDS011;29669;55.706;37.656;2023-04-24T01:27:37;17.48;;;9.00;;
43813;SDS011;29669;55.706;37.656;2023-04-24T01:30:05;30.50;;;10.52;;
43813;SDS011;29669;55.706;37.656;2023-04-24T01:32:34;27.85;;;9.95;;
43813;SDS011;29669;55.706;37.656;2023-04-24T01:35:02;31.10;;;9.82;;
43813;SDS011;29669;55.706;37.656;2023-04-24T01:37:31;29.65;;;8.70;;
43813;SDS011;29669;55.706;37.656;2023-04-24T01:39:59;26.70;;;9.32;;
43813;SDS011;29669;55.706;37.656;2023-04-24T01:42:28;38.10;;;9.52;;
43813;SDS011;29669;55.706;37.656;2023-04-24T01:44:56;32.13;;;9.82;;
43813;SDS011;29669;55.706;37.656;2023-04-24T01:47:25;31.15;;;10.07;;
43813;SDS011;29669;55.706;37.656;2023-04-24T01:49:53;28.60;;;10.65;;
43813;SDS011;29669;55.706;37.656;2023-04-24T01:52:20;39.90;;;10.90;;
43813;SDS011;29669;55.706;37.656;2023-04-24T01:54:48;27.63;;;10.18;;
43813;SDS011;29669;55.706;37.656;2023-04-24T01:57:16;29.48;;;9.85;;
43813;SDS011;29669;55.706;37.656;2023-04-24T01:59:44;23.45;;;8.88;;
43813;SDS011;29669;55.706;37.656;2023-04-24T02:02:14;27.38;;;9.38;;
43813;SDS011;29669;55.706;37.656;2023-04-24T02:04:42;29.85;;;10.57;;
43813;SDS011;29669;55.706;37.656;2023-04-24T02:07:25;31.83;;;9.65;;
43813;SDS011;29669;55.706;37.656;2023-04-24T02:09:54;53.55;;;12.55;;
43813;SDS011;29669;55.706;37.656;2023-04-24T02:12:22;45.08;;;11.32;;
43813;SDS011;29669;55.706;37.656;2023-04-24T02:14:51;34.08;;;10.05;;
43813;SDS011;29669;55.706;37.656;2023-04-24T02:17:19;27.60;;;10.00;;
43813;SDS011;29669;55.706;37.656;2023-04-24T02:19:46;34.65;;;12.43;;
43813;SDS011;29669;55.706;37.656;2023-04-24T02:22:14;29.60;;;10.00;;
43813;SDS011;29669;55.706;37.656;2023-04-24T02:24:42;29.80;;;10.80;;
43813;SDS011;29669;55.706;37.656;2023-04-24T02:27:13;33.15;;;9.70;;
43813;SDS011;29669;55.706;37.656;2023-04-24T02:29:42;29.50;;;9.88;;
43813;SDS011;29669;55.706;37.656;2023-04-24T02:32:10;29.77;;;11.52;;
43813;SDS011;29669;55.706;37.656;2023-04-24T02:34:39;27.48;;;10.68;;
43813;SDS011;29669;55.706;37.656;2023-04-24T02:37:07;34.67;;;10.30;;
43813;SDS011;29669;55.706;37.656;2023-04-24T02:39:36;34.47;;;11.88;;
43813;SDS011;29669;55.706;37.656;2023-04-24T02:42:04;26.05;;;10.65;;
43813;SDS011;29669;55.706;37.656;2023-04-24T02:44:31;23.15;;;10.55;;
43813;SDS011;29669;55.706;37.656;2023-04-24T02:46:59;25.15;;;10.23;;
43813;SDS011;29669;55.706;37.656;2023-04-24T02:49:28;20.23;;;8.82;;
43813;SDS011;29669;55.706;37.656;2023-04-24T02:51:56;27.25;;;11.15;;
43813;SDS011;29669;55.706;37.656;2023-04-24T02:54:24;29.10;;;11.60;;
43813;SDS011;29669;55.706;37.656;2023-04-24T02:56:52;27.27;;;9.80;;
43813;SDS011;29669;55.706;37.656;2023-04-24T02:59:19;23.90;;;10.25;;
43813;SDS011;29669;55.706;37.656;2023-04-24T03:01:47;26.25;;;10.85;;
43813;SDS011;29669;55.706;37.656;2023-04-24T03:04:15;22.75;;;9.52;;
43813;SDS011;29669;55.706;37.656;2023-04-24T03:06:48;28.50;;;11.00;;
43813;SDS011;29669;55.706;37.656;2023-04-24T03:09:15;18.73;;;9.13;;
43813;SDS011;29669;55.706;37.656;2023-04-24T03:11:43;21.85;;;9.68;;
43813;SDS011;29669;55.706;37.656;2023-04-24T03:14:10;26.70;;;11.63;;
43813;SDS011;29669;55.706;37.656;2023-04-24T03:16:38;30.20;;;12.65;;
43813;SDS011;29669;55.706;37.656;2023-04-24T03:19:06;23.10;;;11.50;;
43813;SDS011;29669;55.706;37.656;2023-04-24T03:21:42;22.05;;;12.48;;
43813;SDS011;29669;55.706;37.656;2023-04-24T03:24:10;29.23;;;10.93;;
43813;SDS011;29669;55.706;37.656;2023-04-24T03:26:38;36.75;;;12.00;;
43813;SDS011;29669;55.706;37.656;2023-04-24T03:29:27;42.13;;;13.73;;
43813;SDS011;29669;55.706;37.656;2023-04-24T03:31:57;27.75;;;11.90;;
43813;SDS011;29669;55.706;37.656;2023-04-24T03:34:25;40.72;;;12.98;;
43813;SDS011;29669;55.706;37.656;2023-04-24T03:36:53;21.98;;;12.32;;
43813;SDS011;29669;55.706;37.656;2023-04-24T03:39:21;26.30;;;12.00;;
43813;SDS011;29669;55.706;37.656;2023-04-24T03:41:53;35.30;;;12.00;;
43813;SDS011;29669;55.706;37.656;2023-04-24T03:44:28;35.17;;;11.45;;
43813;SDS011;29669;55.706;37.656;2023-04-24T03:46:55;30.35;;;11.70;;
43813;SDS011;29669;55.706;37.656;2023-04-24T03:49:26;21.55;;;10.50;;
43813;SDS011;29669;55.706;37.656;2023-04-24T03:51:54;26.58;;;11.55;;
43813;SDS011;29669;55.706;37.656;2023-04-24T03:54:25;23.52;;;12.05;;
43813;SDS011;29669;55.706;37.656;2023-04-24T03:56:54;25.55;;;11.30;;
43813;SDS011;29669;55.706;37.656;2023-04-24T03:59:23;28.08;;;13.82;;
43813;SDS011;29669;55.706;37.656;2023-04-24T04:02:05;31.33;;;16.23;;
43813;SDS011;29669;55.706;37.656;2023-04-24T04:04:33;28.13;;;12.57;;
43813;SDS011;29669;55.706;37.656;2023-04-24T04:07:02;28.42;;;11.55;;
43813;SDS011;29669;55.706;37.656;2023-04-24T04:09:30;33.33;;;12.05;;
43813;SDS011;29669;55.706;37.656;2023-04-24T04:11:58;24.73;;;12.15;;
43813;SDS011;29669;55.706;37.656;2023-04-24T04:14:26;31.73;;;12.88;;
43813;SDS011;29669;55.706;37.656;2023-04-24T04:16:55;26.42;;;12.02;;
43813;SDS011;29669;55.706;37.656;2023-04-24T04:19:23;30.48;;;13.13;;
43813;SDS011;29669;55.706;37.656;2023-04-24T04:21:52;30.45;;;14.25;;
43813;SDS011;29669;55.706;37.656;2023-04-24T04:24:36;28.67;;;13.82;;
43813;SDS011;29669;55.706;37.656;2023-04-24T04:27:06;28.13;;;13.95;;
43813;SDS011;29669;55.706;37.656;2023-04-24T04:29:46;28.27;;;10.52;;
43813;SDS011;29669;55.706;37.656;2023-04-24T04:32:15;31.65;;;15.02;;
43813;SDS011;29669;55.706;37.656;2023-04-24T04:34:44;34.08;;;12.75;;
43813;SDS011;29669;55.706;37.656;2023-04-24T04:37:12;37.65;;;14.23;;
43813;SDS011;29669;55.706;37.656;2023-04-24T04:40:13;20.48;;;11.38;;
43813;SDS011;29669;55.706;37.656;2023-04-24T04:42:50;31.67;;;12.20;;
43813;SDS011;29669;55.706;37.656;2023-04-24T04:45:21;20.00;;;12.15;;
43813;SDS011;29669;55.706;37.656;2023-04-24T04:48:08;26.10;;;12.63;;
43813;SDS011;29669;55.706;37.656;2023-04-24T04:50:40;35.30;;;12.18;;
43813;SDS011;29669;55.706;37.656;2023-04-24T04:53:09;32.10;;;12.13;;
43813;SDS011;29669;55.706;37.656;2023-04-24T04:55:38;37.38;;;14.07;;
43813;SDS011;29669;55.706;37.656;2023-04-24T04:58:17;24.42;;;10.68;;
43813;SDS011;29669;55.706;37.656;2023-04-24T05:00:47;26.23;;;13.13;;
43813;SDS011;29669;55.706;37.656;2023-04-24T05:03:27;34.72;;;13.88;;
43813;SDS011;29669;55.706;37.656;2023-04-24T05:06:02;26.10;;;13.00;;
43813;SDS011;29669;55.706;37.656;2023-04-24T05:08:33;34.72;;;13.30;;
43813;SDS011;29669;55.706;37.656;2023-04-24T05:11:04;23.45;;;12.27;;
43813;SDS011;29669;55.706;37.656;2023-04-24T05:13:32;26.48;;;13.60;;
43813;SDS011;29669;55.706;37.656;2023-04-24T05:16:11;28.02;;;13.02;;
43813;SDS011;29669;55.706;37.656;2023-04-24T05:18:40;24.92;;;12.52;;
43813;SDS011;29669;55.706;37.656;2023-04-24T05:21:11;25.85;;;11.77;;
43813;SDS011;29669;55.706;37.656;2023-04-24T05:23:42;21.02;;;11.43;;
43813;SDS011;29669;55.706;37.656;2023-04-24T05:26:20;22.63;;;10.80;;
43813;SDS011;29669;55.706;37.656;2023-04-24T05:28:48;28.17;;;12.60;;
43813;SDS011;29669;55.706;37.656;2023-04-24T05:31:17;26.45;;;14.18;;
43813;SDS011;29669;55.706;37.656;2023-04-24T05:33:45;21.95;;;12.80;;
43813;SDS011;29669;55.706;37.656;2023-04-24T05:36:14;28.88;;;10.68;;
43813;SDS011;29669;55.706;37.656;2023-04-24T05:38:43;25.88;;;12.32;;
43813;SDS011;29669;55.706;37.656;2023-04-24T05:41:12;25.88;;;11.27;;
43813;SDS011;29669;55.706;37.656;2023-04-24T05:43:41;14.98;;;10.63;;
43813;SDS011;29669;55.706;37.656;2023-04-24T05:46:10;27.83;;;12.18;;
43813;SDS011;29669;55.706;37.656;2023-04-24T05:48:49;18.90;;;11.75;;
43813;SDS011;29669;55.706;37.656;2023-04-24T05:51:17;22.63;;;11.20;;
43813;SDS011;29669;55.706;37.656;2023-04-24T05:53:46;27.50;;;12.35;;
43813;SDS011;29669;55.706;37.656;2023-04-24T05:56:14;37.88;;;12.70;;
43813;SDS011;29669;55.706;37.656;2023-04-24T05:58:43;24.85;;;12.40;;
43813;SDS011;29669;55.706;37.656;2023-04-24T06:01:13;17.58;;;9.98;;
43813;SDS011;29669;55.706;37.656;2023-04-24T06:03:44;21.83;;;11.00;;
43813;SDS011;29669;55.706;37.656;2023-04-24T06:06:12;25.70;;;11.75;;
43813;SDS011;29669;55.706;37.656;2023-04-24T06:08:40;26.27;;;12.52;;
43813;SDS011;29669;55.706;37.656;2023-04-24T06:11:10;26.55;;;12.20;;
43813;SDS011;29669;55.706;37.656;2023-04-24T06:13:57;19.77;;;10.60;;
43813;SDS011;29669;55.706;37.656;2023-04-24T06:17:23;29.13;;;11.43;;
43813;SDS011;29669;55.706;37.656;2023-04-24T06:23:18;26.83;;;11.68;;
43813;SDS011;29669;55.706;37.656;2023-04-24T06:26:03;27.70;;;12.18;;
43813;SDS011;29669;55.706;37.656;2023-04-24T06:28:41;18.67;;;11.40;;
43813;SDS011;29669;55.706;37.656;2023-04-24T06:31:09;32.30;;;11.32;;
43813;SDS011;29669;55.706;37.656;2023-04-24T06:33:38;36.65;;;13.93;;
43813;SDS011;29669;55.706;37.656;2023-04-24T06:36:06;26.15;;;12.65;;
43813;SDS011;29669;55.706;37.656;2023-04-24T06:38:35;20.80;;;11.13;;
43813;SDS011;29669;55.706;37.656;2023-04-24T06:41:03;26.67;;;11.50;;
43813;SDS011;29669;55.706;37.656;2023-04-24T06:43:32;19.55;;;11.35;;
43813;SDS011;29669;55.706;37.656;2023-04-24T06:46:01;18.92;;;11.60;;
43813;SDS011;29669;55.706;37.656;2023-04-24T06:48:30;23.98;;;9.55;;
43813;SDS011;29669;55.706;37.656;2023-04-24T06:50:58;17.23;;;8.48;;
43813;SDS011;29669;55.706;37.656;2023-04-24T06:53:29;17.90;;;8.25;;
43813;SDS011;29669;55.706;37.656;2023-04-24T06:55:57;15.23;;;7.55;;
43813;SDS011;29669;55.706;37.656;2023-04-24T06:58:25;14.35;;;7.18;;
43813;SDS011;29669;55.706;37.656;2023-04-24T07:00:54;10.30;;;6.38;;
43813;SDS011;29669;55.706;37.656;2023-04-24T07:03:22;15.38;;;7.10;;
43813;SDS011;29669;55.706;37.656;2023-04-24T07:05:50;15.05;;;7.05;;
43813;SDS011;29669;55.706;37.656;2023-04-24T07:08:18;19.23;;;6.53;;
43813;SDS011;29669;55.706;37.656;2023-04-24T07:10:50;14.43;;;6.35;;
43813;SDS011;29669;55.706;37.656;2023-04-24T07:13:18;14.57;;;7.45;;
43813;SDS011;29669;55.706;37.656;2023-04-24T07:15:47;11.43;;;5.97;;
43813;SDS011;29669;55.706;37.656;2023-04-24T07:18:18;10.77;;;5.88;;
43813;SDS011;29669;55.706;37.656;2023-04-24T07:20:45;20.65;;;6.53;;
43813;SDS011;29669;55.706;37.656;2023-04-24T07:23:13;18.65;;;7.72;;
43813;SDS011;29669;55.706;37.656;2023-04-24T07:25:41;11.60;;;5.10;;
43813;SDS011;29669;55.706;37.656;2023-04-24T07:28:09;13.80;;;5.07;;
43813;SDS011;29669;55.706;37.656;2023-04-24T07:30:37;11.38;;;5.45;;
43813;SDS011;29669;55.706;37.656;2023-04-24T07:33:04;10.57;;;5.13;;
43813;SDS011;29669;55.706;37.656;2023-04-24T07:35:34;10.38;;;5.18;;
43813;SDS011;29669;55.706;37.656;2023-04-24T07:38:02;11.18;;;5.88;;
43813;SDS011;29669;55.706;37.656;2023-04-24T07:40:31;12.27;;;6.72;;
43813;SDS011;29669;55.706;37.656;2023-04-24T07:42:58;12.15;;;5.80;;
43813;SDS011;29669;55.706;37.656;2023-04-24T07:45:26;11.18;;;5.53;;
43813;SDS011;29669;55.706;37.656;2023-04-24T07:47:56;9.68;;;6.18;;
43813;SDS011;29669;55.706;37.656;2023-04-24T07:50:24;11.00;;;5.70;;
43813;SDS011;29669;55.706;37.656;2023-04-24T07:52:51;13.65;;;5.45;;
43813;SDS011;29669;55.706;37.656;2023-04-24T07:55:19;13.30;;;5.68;;
43813;SDS011;29669;55.706;37.656;2023-04-24T07:57:50;12.85;;;4.75;;
43813;SDS011;29669;55.706;37.656;2023-04-24T08:00:27;16.42;;;5.57;;
43813;SDS011;29669;55.706;37.656;2023-04-24T08:03:33;5.03;;;4.07;;
43813;SDS011;29669;55.706;37.656;2023-04-24T08:06:01;8.88;;;5.15;;
43813;SDS011;29669;55.706;37.656;2023-04-24T08:08:29;15.63;;;6.82;;
43813;SDS011;29669;55.706;37.656;2023-04-24T08:10:57;16.90;;;6.82;;
43813;SDS011;29669;55.706;37.656;2023-04-24T08:13:26;8.70;;;4.88;;
43813;SDS011;29669;55.706;37.656;2023-04-24T08:15:54;7.82;;;4.65;;
43813;SDS011;29669;55.706;37.656;2023-04-24T08:18:22;8.50;;;4.70;;
43813;SDS011;29669;55.706;37.656;2023-04-24T08:20:50;14.48;;;5.65;;
43813;SDS011;29669;55.706;37.656;2023-04-24T08:23:18;9.65;;;5.43;;
43813;SDS011;29669;55.706;37.656;2023-04-24T08:25:45;6.93;;;4.93;;
43813;SDS011;29669;55.706;37.656;2023-04-24T08:28:13;13.68;;;5.15;;
43813;SDS011;29669;55.706;37.656;2023-04-24T08:30:47;11.88;;;5.40;;
43813;SDS011;29669;55.706;37.656;2023-04-24T08:33:15;8.77;;;5.18;;
43813;SDS011;29669;55.706;37.656;2023-04-24T08:35:42;10.45;;;5.15;;
43813;SDS011;29669;55.706;37.656;2023-04-24T08:38:10;6.10;;;4.80;;
43813;SDS011;29669;55.706;37.656;2023-04-24T08:40:38;8.82;;;4.80;;
43813;SDS011;29669;55.706;37.656;2023-04-24T08:43:06;9.40;;;5.80;;
43813;SDS011;29669;55.706;37.656;2023-04-24T08:45:35;7.65;;;4.70;;
43813;SDS011;29669;55.706;37.656;2023-04-24T08:48:03;8.30;;;5.60;;
43813;SDS011;29669;55.706;37.656;2023-04-24T08:50:34;11.27;;;5.10;;
43813;SDS011;29669;55.706;37.656;2023-04-24T08:53:02;11.65;;;5.68;;
43813;SDS011;29669;55.706;37.656;2023-04-24T08:55:31;7.13;;;5.20;;
43813;SDS011;29669;55.706;37.656;2023-04-24T08:58:00;12.55;;;6.25;;
43813;SDS011;29669;55.706;37.656;2023-04-24T09:00:30;9.30;;;5.22;;
43813;SDS011;29669;55.706;37.656;2023-04-24T09:02:59;6.95;;;4.38;;
43813;SDS011;29669;55.706;37.656;2023-04-24T09:05:28;9.43;;;4.68;;
43813;SDS011;29669;55.706;37.656;2023-04-24T09:07:57;9.52;;;4.63;;
43813;SDS011;29669;55.706;37.656;2023-04-24T09:10:29;6.05;;;4.70;;
43813;SDS011;29669;55.706;37.656;2023-04-24T09:12:57;7.68;;;4.28;;
43813;SDS011;29669;55.706;37.656;2023-04-24T09:15:28;7.03;;;4.47;;
43813;SDS011;29669;55.706;37.656;2023-04-24T09:17:56;9.15;;;4.78;;
43813;SDS011;29669;55.706;37.656;2023-04-24T09:20:24;8.88;;;5.03;;
43813;SDS011;29669;55.706;37.656;2023-04-24T09:22:59;13.75;;;4.85;;
43813;SDS011;29669;55.706;37.656;2023-04-24T09:25:34;11.47;;;4.97;;
43813;SDS011;29669;55.706;37.656;2023-04-24T09:28:03;8.57;;;5.22;;
43813;SDS011;29669;55.706;37.656;2023-04-24T09:30:33;8.75;;;5.00;;
43813;SDS011;29669;55.706;37.656;2023-04-24T09:33:10;10.95;;;5.03;;
43813;SDS011;29669;55.706;37.656;2023-04-24T09:35:40;5.60;;;4.57;;
43813;SDS011;29669;55.706;37.656;2023-04-24T09:38:10;9.05;;;5.00;;
43813;SDS011;29669;55.706;37.656;2023-04-24T09:40:38;13.18;;;4.80;;
43813;SDS011;29669;55.706;37.656;2023-04-24T09:43:10;12.50;;;4.90;;
43813;SDS011;29669;55.706;37.656;2023-04-24T09:45:38;14.95;;;6.07;;
43813;SDS011;29669;55.706;37.656;2023-04-24T09:48:08;9.85;;;5.50;;
43813;SDS011;29669;55.706;37.656;2023-04-24T09:50:38;11.65;;;5.72;;
43813;SDS011;29669;55.706;37.656;2023-04-24T09:53:06;9.50;;;5.28;;
43813;SDS011;29669;55.706;37.656;2023-04-24T09:55:42;6.57;;;5.35;;
43813;SDS011;29669;55.706;37.656;2023-04-24T09:58:13;9.73;;;4.70;;
43813;SDS011;29669;55.706;37.656;2023-04-24T10:00:41;7.75;;;4.95;;
43813;SDS011;29669;55.706;37.656;2023-04-24T10:03:08;7.55;;;4.43;;
43813;SDS011;29669;55.706;37.656;2023-04-24T10:05:37;15.45;;;4.85;;
43813;SDS011;29669;55.706;37.656;2023-04-24T10:08:06;9.90;;;5.07;;
43813;SDS011;29669;55.706;37.656;2023-04-24T10:10:38;11.32;;;4.40;;
43813;SDS011;29669;55.706;37.656;2023-04-24T10:13:12;10.00;;;4.95;;
43813;SDS011;29669;55.706;37.656;2023-04-24T10:15:42;16.05;;;5.35;;
43813;SDS011;29669;55.706;37.656;2023-04-24T10:18:11;6.85;;;4.43;;
43813;SDS011;29669;55.706;37.656;2023-04-24T10:20:39;8.00;;;5.20;;
43813;SDS011;29669;55.706;37.656;2023-04-24T10:23:07;11.95;;;5.78;;
43813;SDS011;29669;55.706;37.656;2023-04-24T10:25:36;9.73;;;4.43;;
43813;SDS011;29669;55.706;37.656;2023-04-24T10:28:04;9.07;;;5.15;;
43813;SDS011;29669;55.706;37.656;2023-04-24T10:30:34;7.60;;;3.90;;
43813;SDS011;29669;55.706;37.656;2023-04-24T10:33:04;9.98;;;4.90;;
43813;SDS011;29669;55.706;37.656;2023-04-24T10:35:34;13.45;;;4.93;;
43813;SDS011;29669;55.706;37.656;2023-04-24T10:38:12;7.03;;;5.43;;
43813;SDS011;29669;55.706;37.656;2023-04-24T10:40:41;8.88;;;4.90;;
43813;SDS011;29669;55.706;37.656;2023-04-24T10:43:10;7.20;;;5.00;;
43813;SDS011;29669;55.706;37.656;2023-04-24T10:46:00;10.07;;;6.68;;
43813;SDS011;29669;55.706;37.656;2023-04-24T10:51:00;7.22;;;4.80;;
43813;SDS011;29669;55.706;37.656;2023-04-24T10:53:29;9.13;;;5.60;;
43813;SDS011;29669;55.706;37.656;2023-04-24T10:56:05;8.57;;;5.15;;
43813;SDS011;29669;55.706;37.656;2023-04-24T11:01:26;12.13;;;5.18;;
43813;SDS011;29669;55.706;37.656;2023-04-24T11:03:55;9.82;;;5.78;;
43813;SDS011;29669;55.706;37.656;2023-04-24T11:06:31;12.10;;;5.53;;
43813;SDS011;29669;55.706;37.656;2023-04-24T11:09:07;7.20;;;4.72;;
43813;SDS011;29669;55.706;37.656;2023-04-24T11:11:36;9.32;;;4.93;;
43813;SDS011;29669;55.706;37.656;2023-04-24T11:14:07;14.80;;;5.38;;
43813;SDS011;29669;55.706;37.656;2023-04-24T11:16:38;8.95;;;5.25;;
43813;SDS011;29669;55.706;37.656;2023-04-24T11:19:07;12.93;;;5.03;;
43813;SDS011;29669;55.706;37.656;2023-04-24T11:24:22;10.88;;;5.05;;
43813;SDS011;29669;55.706;37.656;2023-04-24T11:26:53;12.90;;;5.07;;
43813;SDS011;29669;55.706;37.656;2023-04-24T11:32:18;10.35;;;5.25;;
43813;SDS011;29669;55.706;37.656;2023-04-24T11:34:58;11.43;;;4.88;;
43813;SDS011;29669;55.706;37.656;2023-04-24T11:37:36;14.50;;;4.93;;
43813;SDS011;29669;55.706;37.656;2023-04-24T11:40:11;11.43;;;4.55;;
43813;SDS011;29669;55.706;37.656;2023-04-24T11:42:41;6.38;;;4.32;;
43813;SDS011;29669;55.706;37.656;2023-04-24T11:45:16;10.68;;;5.47;;
43813;SDS011;29669;55.706;37.656;2023-04-24T11:47:46;6.63;;;4.47;;
43813;SDS011;29669;55.706;37.656;2023-04-24T11:50:14;7.22;;;4.78;;
43813;SDS011;29669;55.706;37.656;2023-04-24T11:52:44;16.35;;;5.10;;
43813;SDS011;29669;55.706;37.656;2023-04-24T11:57:47;7.38;;;4.88;;
43813;SDS011;29669;55.706;37.656;2023-04-24T12:00:20;13.45;;;5.20;;
43813;SDS011;29669;55.706;37.656;2023-04-24T12:02:50;9.95;;;5.63;;
43813;SDS011;29669;55.706;37.656;2023-04-24T12:05:19;7.38;;;5.25;;
43813;SDS011;29669;55.706;37.656;2023-04-24T12:07:48;9.00;;;4.90;;
43813;SDS011;29669;55.706;37.656;2023-04-24T12:10:23;11.85;;;5.45;;
43813;SDS011;29669;55.706;37.656;2023-04-24T12:12:53;10.82;;;5.13;;
43813;SDS011;29669;55.706;37.656;2023-04-24T12:15:23;8.82;;;4.82;;
43813;SDS011;29669;55.706;37.656;2023-04-24T12:17:52;8.63;;;4.45;;
43813;SDS011;29669;55.706;37.656;2023-04-24T12:20:24;10.30;;;4.60;;
43813;SDS011;29669;55.706;37.656;2023-04-24T12:22:55;12.93;;;6.30;;
43813;SDS011;29669;55.706;37.656;2023-04-24T12:25:28;9.10;;;5.10;;
43813;SDS011;29669;55.706;37.656;2023-04-24T12:30:34;8.80;;;4.80;;
43813;SDS011;29669;55.706;37.656;2023-04-24T12:33:05;8.55;;;4.80;;
43813;SDS011;29669;55.706;37.656;2023-04-24T12:35:36;10.18;;;5.45;;
43813;SDS011;29669;55.706;37.656;2023-04-24T12:38:10;9.35;;;4.65;;
43813;SDS011;29669;55.706;37.656;2023-04-24T12:40:41;9.90;;;5.88;;
43813;SDS011;29669;55.706;37.656;2023-04-24T12:43:14;9.02;;;4.07;;
43813;SDS011;29669;55.706;37.656;2023-04-24T12:45:43;6.40;;;4.05;;
43813;SDS011;29669;55.706;37.656;2023-04-24T12:48:12;6.00;;;3.80;;
43813;SDS011;29669;55.706;37.656;2023-04-24T12:50:41;7.13;;;4.70;;
43813;SDS011;29669;55.706;37.656;2023-04-24T12:53:12;11.20;;;4.38;;
43813;SDS011;29669;55.706;37.656;2023-04-24T12:55:40;5.80;;;4.40;;
43813;SDS011;29669;55.706;37.656;2023-04-24T12:58:08;8.20;;;4.40;;
43813;SDS011;29669;55.706;37.656;2023-04-24T13:00:35;5.85;;;4.32;;
43813;SDS011;29669;55.706;37.656;2023-04-24T13:03:04;16.52;;;3.88;;
43813;SDS011;29669;55.706;37.656;2023-04-24T13:05:32;7.50;;;4.30;;
43813;SDS011;29669;55.706;37.656;2023-04-24T13:07:59;11.13;;;4.30;;
43813;SDS011;29669;55.706;37.656;2023-04-24T13:10:27;6.07;;;3.45;;
43813;SDS011;29669;55.706;37.656;2023-04-24T13:12:57;7.90;;;4.63;;
43813;SDS011;29669;55.706;37.656;2023-04-24T13:15:25;9.05;;;3.72;;
43813;SDS011;29669;55.706;37.656;2023-04-24T13:17:52;9.85;;;4.40;;
43813;SDS011;29669;55.706;37.656;2023-04-24T13:20:20;8.90;;;4.20;;
43813;SDS011;29669;55.706;37.656;2023-04-24T13:22:48;6.43;;;3.53;;
43813;SDS011;29669;55.706;37.656;2023-04-24T13:25:15;9.90;;;4.80;;
43813;SDS011;29669;55.706;37.656;2023-04-24T13:27:44;6.28;;;4.78;;
43813;SDS011;29669;55.706;37.656;2023-04-24T13:30:12;7.25;;;4.10;;
43813;SDS011;29669;55.706;37.656;2023-04-24T13:32:40;7.68;;;4.40;;
43813;SDS011;29669;55.706;37.656;2023-04-24T13:35:08;5.40;;;4.00;;
43813;SDS011;29669;55.706;37.656;2023-04-24T13:37:36;11.80;;;4.95;;
43813;SDS011;29669;55.706;37.656;2023-04-24T13:40:04;7.00;;;5.18;;
43813;SDS011;29669;55.706;37.656;2023-04-24T13:42:33;10.38;;;4.47;;
43813;SDS011;29669;55.706;37.656;2023-04-24T13:45:01;8.05;;;4.25;;
43813;SDS011;29669;55.706;37.656;2023-04-24T13:47:49;10.32;;;4.93;;
43813;SDS011;29669;55.706;37.656;2023-04-24T13:50:18;5.25;;;4.03;;
43813;SDS011;29669;55.706;37.656;2023-04-24T13:52:47;7.57;;;4.57;;
43813;SDS011;29669;55.706;37.656;2023-04-24T13:55:14;7.47;;;4.35;;
43813;SDS011;29669;55.706;37.656;2023-04-24T13:57:42;9.63;;;4.40;;
43813;SDS011;29669;55.706;37.656;2023-04-24T14:00:10;9.95;;;5.22;;
43813;SDS011;29669;55.706;37.656;2023-04-24T14:02:38;5.97;;;4.10;;
43813;SDS011;29669;55.706;37.656;2023-04-24T14:05:06;13.23;;;4.93;;
43813;SDS011;29669;55.706;37.656;2023-04-24T14:07:34;10.48;;;5.32;;
43813;SDS011;29669;55.706;37.656;2023-04-24T14:10:03;8.50;;;5.00;;
43813;SDS011;29669;55.706;37.656;2023-04-24T14:12:31;10.13;;;5.13;;
43813;SDS011;29669;55.706;37.656;2023-04-24T14:14:58;9.07;;;4.65;;
43813;SDS011;29669;55.706;37.656;2023-04-24T14:17:26;10.25;;;5.65;;
43813;SDS011;29669;55.706;37.656;2023-04-24T14:19:55;10.23;;;5.25;;
43813;SDS011;29669;55.706;37.656;2023-04-24T14:22:24;8.82;;;5.00;;
43813;SDS011;29669;55.706;37.656;2023-04-24T14:24:52;7.03;;;4.90;;
43813;SDS011;29669;55.706;37.656;2023-04-24T14:27:20;6.70;;;3.75;;
43813;SDS011;29669;55.706;37.656;2023-04-24T14:29:48;6.55;;;4.18;;
43813;SDS011;29669;55.706;37.656;2023-04-24T14:32:16;6.75;;;4.68;;
43813;SDS011;29669;55.706;37.656;2023-04-24T14:34:44;7.15;;;4.30;;
43813;SDS011;29669;55.706;37.656;2023-04-24T14:37:13;7.95;;;4.50;;
43813;SDS011;29669;55.706;37.656;2023-04-24T14:39:42;14.88;;;5.28;;
43813;SDS011;29669;55.706;37.656;2023-04-24T14:42:14;9.95;;;4.30;;
43813;SDS011;29669;55.706;37.656;2023-04-24T14:44:44;5.93;;;3.90;;
43813;SDS011;29669;55.706;37.656;2023-04-24T14:47:13;6.55;;;4.57;;
43813;SDS011;29669;55.706;37.656;2023-04-24T14:49:41;6.82;;;3.90;;
43813;SDS011;29669;55.706;37.656;2023-04-24T14:52:11;7.35;;;4.68;;
43813;SDS011;29669;55.706;37.656;2023-04-24T14:54:39;11.00;;;5.28;;
43813;SDS011;29669;55.706;37.656;2023-04-24T14:57:07;6.55;;;3.70;;